aviador You're here:

YCFS Decoded Metar

in
Report Time2018-05-21 20:00:00
UTC Time2018-05-21 20:14:27
Flight Rules vfr VFR
Wind320° at 02 kt
W.Decomp.*RWY 28: 1.5 kt HW 1.3 kt RCW
RWY 03: 0.7 kt HW 1.9 kt LCW
W.Rank320° ranks 11
Current wind is below 320° avg. (5.8)
Visibility9999 m
Phenomena:N/A
Clouds:N/A
Expected CloudBase > 400 ft AGL from Temp-Dew spread
CeilingNone
Temp06°C
Dew Point05°C (93% RH)
AAT4.1°C
QNH1019 hPa
Raw Report
METAR YCFS 212000Z AUTO 32002KT 9999 // NCD 06/05 Q1019
RF00.0/000.0=

Extra information for YCFS:More info

Social comments